sensor_id;sensor_type;location;lat;lon;timestamp;temperature;humidity
67364;HTU21D;54250;45.572;38.086;2023-04-29T00:00:07;11.61;83.15
67364;HTU21D;54250;45.572;38.086;2023-04-29T00:02:38;11.58;83.14
67364;HTU21D;54250;45.572;38.086;2023-04-29T00:05:04;11.54;83.26
67364;HTU21D;54250;45.572;38.086;2023-04-29T00:07:30;11.49;83.36
67364;HTU21D;54250;45.572;38.086;2023-04-29T00:09:57;11.46;83.41
67364;HTU21D;54250;45.572;38.086;2023-04-29T00:12:24;11.39;83.46
67364;HTU21D;54250;45.572;38.086;2023-04-29T00:14:50;11.28;83.68
67364;HTU21D;54250;45.572;38.086;2023-04-29T00:17:16;11.16;83.92
67364;HTU21D;54250;45.572;38.086;2023-04-29T00:19:42;11.07;84.08
67364;HTU21D;54250;45.572;38.086;2023-04-29T00:22:08;10.97;84.19
67364;HTU21D;54250;45.572;38.086;2023-04-29T00:24:34;10.88;84.33
67364;HTU21D;54250;45.572;38.086;2023-04-29T00:27:00;10.82;84.40
67364;HTU21D;54250;45.572;38.086;2023-04-29T00:29:30;10.78;84.36
67364;HTU21D;54250;45.572;38.086;2023-04-29T00:31:56;10.80;84.26
67364;HTU21D;54250;45.572;38.086;2023-04-29T00:34:22;10.83;83.94
67364;HTU21D;54250;45.572;38.086;2023-04-29T00:36:48;10.93;83.78
67364;HTU21D;54250;45.572;38.086;2023-04-29T00:39:16;10.93;83.69
67364;HTU21D;54250;45.572;38.086;2023-04-29T00:41:43;10.92;83.78
67364;HTU21D;54250;45.572;38.086;2023-04-29T00:44:09;10.97;83.73
67364;HTU21D;54250;45.572;38.086;2023-04-29T00:46:35;11.05;83.62
67364;HTU21D;54250;45.572;38.086;2023-04-29T00:49:02;11.14;83.45
67364;HTU21D;54250;45.572;38.086;2023-04-29T00:51:28;11.23;83.34
67364;HTU21D;54250;45.572;38.086;2023-04-29T00:53:54;11.26;83.32
67364;HTU21D;54250;45.572;38.086;2023-04-29T00:56:20;11.32;83.23
67364;HTU21D;54250;45.572;38.086;2023-04-29T00:58:47;11.40;83.14
67364;HTU21D;54250;45.572;38.086;2023-04-29T01:01:18;11.45;83.07
67364;HTU21D;54250;45.572;38.086;2023-04-29T01:03:44;11.52;83.01
67364;HTU21D;54250;45.572;38.086;2023-04-29T01:09:08;11.63;82.97
67364;HTU21D;54250;45.572;38.086;2023-04-29T01:11:34;11.67;82.98
67364;HTU21D;54250;45.572;38.086;2023-04-29T01:14:02;11.72;83.04
67364;HTU21D;54250;45.572;38.086;2023-04-29T01:19:16;11.79;83.07
67364;HTU21D;54250;45.572;38.086;2023-04-29T01:21:47;11.82;83.11
67364;HTU21D;54250;45.572;38.086;2023-04-29T01:24:15;11.84;83.27
67364;HTU21D;54250;45.572;38.086;2023-04-29T01:26:55;11.85;83.28
67364;HTU21D;54250;45.572;38.086;2023-04-29T01:30:37;11.85;83.23
67364;HTU21D;54250;45.572;38.086;2023-04-29T01:41:34;11.85;83.24
67364;HTU21D;54250;45.572;38.086;2023-04-29T01:44:21;11.84;83.31
67364;HTU21D;54250;45.572;38.086;2023-04-29T01:46:50;11.83;83.35
67364;HTU21D;54250;45.572;38.086;2023-04-29T01:49:20;11.83;83.35
67364;HTU21D;54250;45.572;38.086;2023-04-29T01:51:47;11.85;83.36
67364;HTU21D;54250;45.572;38.086;2023-04-29T01:54:14;11.85;83.38
67364;HTU21D;54250;45.572;38.086;2023-04-29T01:56:41;11.86;83.41
67364;HTU21D;54250;45.572;38.086;2023-04-29T01:59:24;11.87;83.33
67364;HTU21D;54250;45.572;38.086;2023-04-29T02:02:16;11.84;83.38
67364;HTU21D;54250;45.572;38.086;2023-04-29T02:04:53;11.83;83.45
67364;HTU21D;54250;45.572;38.086;2023-04-29T02:07:19;11.83;83.51
67364;HTU21D;54250;45.572;38.086;2023-04-29T02:09:47;11.82;83.50
67364;HTU21D;54250;45.572;38.086;2023-04-29T02:12:13;11.82;83.53
67364;HTU21D;54250;45.572;38.086;2023-04-29T02:14:39;11.81;83.53
67364;HTU21D;54250;45.572;38.086;2023-04-29T02:17:05;11.83;83.53
67364;HTU21D;54250;45.572;38.086;2023-04-29T02:19:31;11.85;83.52
67364;HTU21D;54250;45.572;38.086;2023-04-29T02:21:58;11.85;83.52
67364;HTU21D;54250;45.572;38.086;2023-04-29T02:24:25;11.85;83.52
67364;HTU21D;54250;45.572;38.086;2023-04-29T02:26:51;11.85;83.54
67364;HTU21D;54250;45.572;38.086;2023-04-29T02:29:17;11.83;83.54
67364;HTU21D;54250;45.572;38.086;2023-04-29T02:31:43;11.83;83.61
67364;HTU21D;54250;45.572;38.086;2023-04-29T02:34:09;11.83;83.68
67364;HTU21D;54250;45.572;38.086;2023-04-29T02:36:35;11.84;83.71
67364;HTU21D;54250;45.572;38.086;2023-04-29T02:39:01;11.82;83.73
67364;HTU21D;54250;45.572;38.086;2023-04-29T02:41:28;11.81;83.78
67364;HTU21D;54250;45.572;38.086;2023-04-29T02:43:54;11.81;83.86
67364;HTU21D;54250;45.572;38.086;2023-04-29T02:46:20;11.82;83.90
67364;HTU21D;54250;45.572;38.086;2023-04-29T02:48:46;11.81;83.96
67364;HTU21D;54250;45.572;38.086;2023-04-29T02:51:13;11.81;84.00
67364;HTU21D;54250;45.572;38.086;2023-04-29T02:53:39;11.81;84.08
67364;HTU21D;54250;45.572;38.086;2023-04-29T02:56:05;11.79;84.14
67364;HTU21D;54250;45.572;38.086;2023-04-29T02:58:32;11.79;84.15
67364;HTU21D;54250;45.572;38.086;2023-04-29T03:00:58;11.81;84.16
67364;HTU21D;54250;45.572;38.086;2023-04-29T03:03:24;11.81;84.07
67364;HTU21D;54250;45.572;38.086;2023-04-29T03:05:51;11.82;84.03
67364;HTU21D;54250;45.572;38.086;2023-04-29T03:08:17;11.84;83.98
67364;HTU21D;54250;45.572;38.086;2023-04-29T03:10:44;11.85;83.94
67364;HTU21D;54250;45.572;38.086;2023-04-29T03:13:11;11.89;83.92
67364;HTU21D;54250;45.572;38.086;2023-04-29T03:15:37;11.94;83.87
67364;HTU21D;54250;45.572;38.086;2023-04-29T03:18:05;11.99;83.90
67364;HTU21D;54250;45.572;38.086;2023-04-29T03:20:33;12.04;83.79
67364;HTU21D;54250;45.572;38.086;2023-04-29T03:23:01;12.07;83.74
67364;HTU21D;54250;45.572;38.086;2023-04-29T03:25:27;12.12;83.74
67364;HTU21D;54250;45.572;38.086;2023-04-29T03:27:55;12.18;83.65
67364;HTU21D;54250;45.572;38.086;2023-04-29T03:30:22;12.22;83.63
67364;HTU21D;54250;45.572;38.086;2023-04-29T03:32:51;12.29;83.55
67364;HTU21D;54250;45.572;38.086;2023-04-29T03:35:17;12.33;83.55
67364;HTU21D;54250;45.572;38.086;2023-04-29T03:38:06;12.41;83.38
67364;HTU21D;54250;45.572;38.086;2023-04-29T03:40:34;12.45;83.38
67364;HTU21D;54250;45.572;38.086;2023-04-29T03:43:00;12.56;83.34
67364;HTU21D;54250;45.572;38.086;2023-04-29T03:45:26;12.67;83.25
67364;HTU21D;54250;45.572;38.086;2023-04-29T03:47:52;12.77;83.17
67364;HTU21D;54250;45.572;38.086;2023-04-29T03:50:19;12.87;83.09
67364;HTU21D;54250;45.572;38.086;2023-04-29T03:52:46;12.95;83.01
67364;HTU21D;54250;45.572;38.086;2023-04-29T03:55:15;13.08;82.91
67364;HTU21D;54250;45.572;38.086;2023-04-29T03:57:42;13.27;82.65
67364;HTU21D;54250;45.572;38.086;2023-04-29T04:00:10;13.51;82.23
67364;HTU21D;54250;45.572;38.086;2023-04-29T04:02:39;13.73;81.90
67364;HTU21D;54250;45.572;38.086;2023-04-29T04:05:05;13.95;81.55
67364;HTU21D;54250;45.572;38.086;2023-04-29T04:07:31;14.13;81.36
67364;HTU21D;54250;45.572;38.086;2023-04-29T04:10:29;14.36;81.10
67364;HTU21D;54250;45.572;38.086;2023-04-29T04:12:57;14.51;80.89
67364;HTU21D;54250;45.572;38.086;2023-04-29T04:15:23;14.72;80.59
67364;HTU21D;54250;45.572;38.086;2023-04-29T04:17:49;14.79;80.48
67364;HTU21D;54250;45.572;38.086;2023-04-29T04:20:15;14.79;80.62
67364;HTU21D;54250;45.572;38.086;2023-04-29T04:22:42;14.86;80.59
67364;HTU21D;54250;45.572;38.086;2023-04-29T04:25:18;14.97;80.42
67364;HTU21D;54250;45.572;38.086;2023-04-29T04:27:44;15.04;80.33
67364;HTU21D;54250;45.572;38.086;2023-04-29T04:30:18;15.08;80.36
67364;HTU21D;54250;45.572;38.086;2023-04-29T04:32:44;15.12;80.43
67364;HTU21D;54250;45.572;38.086;2023-04-29T04:35:11;15.24;80.14
67364;HTU21D;54250;45.572;38.086;2023-04-29T04:37:37;15.33;79.98
67364;HTU21D;54250;45.572;38.086;2023-04-29T04:40:04;15.40;79.93
67364;HTU21D;54250;45.572;38.086;2023-04-29T04:42:39;15.47;79.96
67364;HTU21D;54250;45.572;38.086;2023-04-29T04:45:10;15.54;79.92
67364;HTU21D;54250;45.572;38.086;2023-04-29T04:47:46;15.60;79.81
67364;HTU21D;54250;45.572;38.086;2023-04-29T04:50:20;15.57;79.76
67364;HTU21D;54250;45.572;38.086;2023-04-29T04:52:48;15.55;79.83
67364;HTU21D;54250;45.572;38.086;2023-04-29T04:55:35;15.59;79.79
67364;HTU21D;54250;45.572;38.086;2023-04-29T04:58:02;15.68;79.66
67364;HTU21D;54250;45.572;38.086;2023-04-29T05:00:28;15.74;79.47
67364;HTU21D;54250;45.572;38.086;2023-04-29T05:02:54;15.81;79.36
67364;HTU21D;54250;45.572;38.086;2023-04-29T05:05:20;15.84;79.32
67364;HTU21D;54250;45.572;38.086;2023-04-29T05:07:46;15.89;79.15
67364;HTU21D;54250;45.572;38.086;2023-04-29T05:10:13;15.95;79.01
67364;HTU21D;54250;45.572;38.086;2023-04-29T05:12:45;16.02;78.69
67364;HTU21D;54250;45.572;38.086;2023-04-29T05:15:13;16.13;78.50
67364;HTU21D;54250;45.572;38.086;2023-04-29T05:17:43;16.19;78.18
67364;HTU21D;54250;45.572;38.086;2023-04-29T05:20:09;16.28;78.04
67364;HTU21D;54250;45.572;38.086;2023-04-29T05:22:35;16.36;77.82
67364;HTU21D;54250;45.572;38.086;2023-04-29T05:25:01;16.45;77.60
67364;HTU21D;54250;45.572;38.086;2023-04-29T05:27:30;16.37;77.54
67364;HTU21D;54250;45.572;38.086;2023-04-29T05:29:56;16.27;77.88
67364;HTU21D;54250;45.572;38.086;2023-04-29T05:32:22;16.18;77.98
67364;HTU21D;54250;45.572;38.086;2023-04-29T05:34:48;16.08;78.08
67364;HTU21D;54250;45.572;38.086;2023-04-29T05:37:15;15.91;78.26
67364;HTU21D;54250;45.572;38.086;2023-04-29T05:39:58;15.71;78.47
67364;HTU21D;54250;45.572;38.086;2023-04-29T05:42:25;15.54;78.73
67364;HTU21D;54250;45.572;38.086;2023-04-29T05:44:51;15.42;78.70
67364;HTU21D;54250;45.572;38.086;2023-04-29T05:47:16;15.31;78.73
67364;HTU21D;54250;45.572;38.086;2023-04-29T05:49:43;15.13;78.87
67364;HTU21D;54250;45.572;38.086;2023-04-29T05:52:09;15.02;79.01
67364;HTU21D;54250;45.572;38.086;2023-04-29T05:54:41;14.96;78.91
67364;HTU21D;54250;45.572;38.086;2023-04-29T05:57:07;14.89;78.96
67364;HTU21D;54250;45.572;38.086;2023-04-29T05:59:33;14.83;78.92
67364;HTU21D;54250;45.572;38.086;2023-04-29T06:02:03;14.83;78.86
67364;HTU21D;54250;45.572;38.086;2023-04-29T06:04:29;14.85;78.72
67364;HTU21D;54250;45.572;38.086;2023-04-29T06:07:33;14.81;78.66
67364;HTU21D;54250;45.572;38.086;2023-04-29T06:10:05;14.79;78.70
67364;HTU21D;54250;45.572;38.086;2023-04-29T06:12:32;14.85;78.58
67364;HTU21D;54250;45.572;38.086;2023-04-29T06:14:58;15.01;78.29
67364;HTU21D;54250;45.572;38.086;2023-04-29T06:17:24;15.26;77.92
67364;HTU21D;54250;45.572;38.086;2023-04-29T06:19:50;15.51;77.48
67364;HTU21D;54250;45.572;38.086;2023-04-29T06:22:16;15.67;77.31
67364;HTU21D;54250;45.572;38.086;2023-04-29T06:24:48;15.61;77.31
67364;HTU21D;54250;45.572;38.086;2023-04-29T06:27:20;15.55;77.69
67364;HTU21D;54250;45.572;38.086;2023-04-29T06:29:46;15.55;77.81
67364;HTU21D;54250;45.572;38.086;2023-04-29T06:32:13;15.54;77.85
67364;HTU21D;54250;45.572;38.086;2023-04-29T06:34:39;15.47;77.94
67364;HTU21D;54250;45.572;38.086;2023-04-29T06:37:27;15.34;78.14
67364;HTU21D;54250;45.572;38.086;2023-04-29T06:40:25;15.30;78.30
67364;HTU21D;54250;45.572;38.086;2023-04-29T06:43:09;15.29;78.21
67364;HTU21D;54250;45.572;38.086;2023-04-29T06:45:54;15.27;78.19
67364;HTU21D;54250;45.572;38.086;2023-04-29T06:48:32;15.21;78.18
67364;HTU21D;54250;45.572;38.086;2023-04-29T06:50:58;15.12;78.12
67364;HTU21D;54250;45.572;38.086;2023-04-29T06:53:25;15.03;78.26
67364;HTU21D;54250;45.572;38.086;2023-04-29T06:55:51;15.04;78.13
67364;HTU21D;54250;45.572;38.086;2023-04-29T06:58:19;15.09;78.01
67364;HTU21D;54250;45.572;38.086;2023-04-29T07:00:46;15.10;77.89
67364;HTU21D;54250;45.572;38.086;2023-04-29T07:03:14;15.18;77.77
67364;HTU21D;54250;45.572;38.086;2023-04-29T07:05:40;15.31;77.50
67364;HTU21D;54250;45.572;38.086;2023-04-29T07:08:10;15.38;77.40
67364;HTU21D;54250;45.572;38.086;2023-04-29T07:10:37;15.46;77.22
67364;HTU21D;54250;45.572;38.086;2023-04-29T07:13:03;15.53;77.16
67364;HTU21D;54250;45.572;38.086;2023-04-29T07:15:33;15.65;76.98
67364;HTU21D;54250;45.572;38.086;2023-04-29T07:17:59;15.68;76.82
67364;HTU21D;54250;45.572;38.086;2023-04-29T07:20:25;15.59;77.03
67364;HTU21D;54250;45.572;38.086;2023-04-29T07:22:54;15.53;77.18
67364;HTU21D;54250;45.572;38.086;2023-04-29T07:25:20;15.55;77.18
67364;HTU21D;54250;45.572;38.086;2023-04-29T07:27:46;15.53;77.16
67364;HTU21D;54250;45.572;38.086;2023-04-29T07:30:12;15.39;77.35
67364;HTU21D;54250;45.572;38.086;2023-04-29T07:32:39;15.25;77.65
67364;HTU21D;54250;45.572;38.086;2023-04-29T07:35:05;15.19;77.73
67364;HTU21D;54250;45.572;38.086;2023-04-29T07:37:31;15.14;77.75
67364;HTU21D;54250;45.572;38.086;2023-04-29T07:39:57;15.03;77.84
67364;HTU21D;54250;45.572;38.086;2023-04-29T07:42:26;14.93;77.99
67364;HTU21D;54250;45.572;38.086;2023-04-29T07:44:52;14.85;78.00
67364;HTU21D;54250;45.572;38.086;2023-04-29T07:47:18;14.80;77.99
67364;HTU21D;54250;45.572;38.086;2023-04-29T07:49:44;14.78;77.98
67364;HTU21D;54250;45.572;38.086;2023-04-29T07:52:10;14.77;77.95
67364;HTU21D;54250;45.572;38.086;2023-04-29T07:54:36;14.75;77.98
67364;HTU21D;54250;45.572;38.086;2023-04-29T07:57:03;14.72;77.94
67364;HTU21D;54250;45.572;38.086;2023-04-29T07:59:31;14.66;78.03
67364;HTU21D;54250;45.572;38.086;2023-04-29T08:01:57;14.62;78.08
67364;HTU21D;54250;45.572;38.086;2023-04-29T08:04:23;14.55;78.18
67364;HTU21D;54250;45.572;38.086;2023-04-29T08:06:58;14.51;78.32
67364;HTU21D;54250;45.572;38.086;2023-04-29T08:09:25;14.43;78.47
67364;HTU21D;54250;45.572;38.086;2023-04-29T08:11:51;14.37;78.60
67364;HTU21D;54250;45.572;38.086;2023-04-29T08:14:17;14.36;78.63
67364;HTU21D;54250;45.572;38.086;2023-04-29T08:16:43;14.39;78.53
67364;HTU21D;54250;45.572;38.086;2023-04-29T08:19:09;14.43;78.42
67364;HTU21D;54250;45.572;38.086;2023-04-29T08:21:36;14.38;78.50
67364;HTU21D;54250;45.572;38.086;2023-04-29T08:24:02;14.37;78.67
67364;HTU21D;54250;45.572;38.086;2023-04-29T08:26:30;14.38;78.65
67364;HTU21D;54250;45.572;38.086;2023-04-29T08:28:57;14.41;78.63
67364;HTU21D;54250;45.572;38.086;2023-04-29T08:31:23;14.51;78.43
67364;HTU21D;54250;45.572;38.086;2023-04-29T08:33:49;14.62;78.26
67364;HTU21D;54250;45.572;38.086;2023-04-29T08:36:15;14.77;78.12
67364;HTU21D;54250;45.572;38.086;2023-04-29T08:38:41;14.96;77.76
67364;HTU21D;54250;45.572;38.086;2023-04-29T08:41:07;15.15;77.44
67364;HTU21D;54250;45.572;38.086;2023-04-29T08:43:37;15.29;77.26
67364;HTU21D;54250;45.572;38.086;2023-04-29T08:46:05;15.34;77.21
67364;HTU21D;54250;45.572;38.086;2023-04-29T08:48:33;15.39;77.31
67364;HTU21D;54250;45.572;38.086;2023-04-29T08:51:00;15.48;77.22
67364;HTU21D;54250;45.572;38.086;2023-04-29T08:53:27;15.60;77.01
67364;HTU21D;54250;45.572;38.086;2023-04-29T08:55:54;15.78;76.83
67364;HTU21D;54250;45.572;38.086;2023-04-29T08:58:24;16.05;76.37
67364;HTU21D;54250;45.572;38.086;2023-04-29T09:00:51;16.27;76.04
67364;HTU21D;54250;45.572;38.086;2023-04-29T09:03:27;16.43;75.96
67364;HTU21D;54250;45.572;38.086;2023-04-29T09:05:55;16.41;76.01
67364;HTU21D;54250;45.572;38.086;2023-04-29T09:08:24;16.30;76.34
67364;HTU21D;54250;45.572;38.086;2023-04-29T09:10:51;16.20;76.56
67364;HTU21D;54250;45.572;38.086;2023-04-29T09:13:28;16.04;76.95
67364;HTU21D;54250;45.572;38.086;2023-04-29T09:15:54;15.96;77.19
67364;HTU21D;54250;45.572;38.086;2023-04-29T09:18:46;15.83;77.22
67364;HTU21D;54250;45.572;38.086;2023-04-29T09:21:19;15.63;77.61
67364;HTU21D;54250;45.572;38.086;2023-04-29T09:23:47;15.46;77.88
67364;HTU21D;54250;45.572;38.086;2023-04-29T09:26:14;15.39;78.08
67364;HTU21D;54250;45.572;38.086;2023-04-29T09:28:41;15.29;78.17
67364;HTU21D;54250;45.572;38.086;2023-04-29T09:31:10;15.19;78.34
67364;HTU21D;54250;45.572;38.086;2023-04-29T09:33:50;15.12;78.43
67364;HTU21D;54250;45.572;38.086;2023-04-29T09:39:11;15.04;78.55
67364;HTU21D;54250;45.572;38.086;2023-04-29T09:41:39;15.06;78.64
67364;HTU21D;54250;45.572;38.086;2023-04-29T09:44:07;15.15;78.58
67364;HTU21D;54250;45.572;38.086;2023-04-29T09:46:34;15.17;78.39
67364;HTU21D;54250;45.572;38.086;2023-04-29T09:49:02;15.18;78.59
67364;HTU21D;54250;45.572;38.086;2023-04-29T09:51:34;15.19;78.59
67364;HTU21D;54250;45.572;38.086;2023-04-29T09:54:21;15.18;78.54
67364;HTU21D;54250;45.572;38.086;2023-04-29T09:56:52;15.14;78.80
67364;HTU21D;54250;45.572;38.086;2023-04-29T09:59:18;15.10;78.88
67364;HTU21D;54250;45.572;38.086;2023-04-29T10:01:55;15.00;78.95
67364;HTU21D;54250;45.572;38.086;2023-04-29T10:04:23;14.89;79.30
67364;HTU21D;54250;45.572;38.086;2023-04-29T10:06:51;14.80;79.40
67364;HTU21D;54250;45.572;38.086;2023-04-29T10:09:19;14.64;79.64
67364;HTU21D;54250;45.572;38.086;2023-04-29T10:11:52;14.54;79.88
67364;HTU21D;54250;45.572;38.086;2023-04-29T10:14:22;14.51;80.03
67364;HTU21D;54250;45.572;38.086;2023-04-29T10:17:01;14.51;80.04
67364;HTU21D;54250;45.572;38.086;2023-04-29T10:19:34;14.50;80.20
67364;HTU21D;54250;45.572;38.086;2023-04-29T10:22:46;14.44;80.24
67364;HTU21D;54250;45.572;38.086;2023-04-29T10:25:11;14.37;80.28
67364;HTU21D;54250;45.572;38.086;2023-04-29T10:27:41;14.26;80.50
67364;HTU21D;54250;45.572;38.086;2023-04-29T10:30:13;14.15;80.66
67364;HTU21D;54250;45.572;38.086;2023-04-29T10:32:39;14.07;80.84
67364;HTU21D;54250;45.572;38.086;2023-04-29T10:35:10;14.00;80.85
67364;HTU21D;54250;45.572;38.086;2023-04-29T10:37:37;13.95;80.91
67364;HTU21D;54250;45.572;38.086;2023-04-29T10:40:30;13.92;80.92
67364;HTU21D;54250;45.572;38.086;2023-04-29T10:42:59;13.92;80.89
67364;HTU21D;54250;45.572;38.086;2023-04-29T10:45:26;13.89;80.98
67364;HTU21D;54250;45.572;38.086;2023-04-29T10:50:32;13.89;80.84
67364;HTU21D;54250;45.572;38.086;2023-04-29T10:53:02;13.86;80.97
67364;HTU21D;54250;45.572;38.086;2023-04-29T10:55:28;13.90;80.95
67364;HTU21D;54250;45.572;38.086;2023-04-29T10:57:55;13.92;80.86
67364;HTU21D;54250;45.572;38.086;2023-04-29T11:00:25;13.84;80.86
67364;HTU21D;54250;45.572;38.086;2023-04-29T11:02:53;13.79;81.09
67364;HTU21D;54250;45.572;38.086;2023-04-29T11:08:20;13.83;81.00
67364;HTU21D;54250;45.572;38.086;2023-04-29T11:10:52;13.84;81.05
67364;HTU21D;54250;45.572;38.086;2023-04-29T11:13:30;13.82;81.20
67364;HTU21D;54250;45.572;38.086;2023-04-29T11:16:10;13.82;81.15
67364;HTU21D;54250;45.572;38.086;2023-04-29T11:19:08;13.73;81.33
67364;HTU21D;54250;45.572;38.086;2023-04-29T11:21:36;13.70;81.48
67364;HTU21D;54250;45.572;38.086;2023-04-29T11:24:05;13.67;81.62
67364;HTU21D;54250;45.572;38.086;2023-04-29T11:26:35;13.76;81.66
67364;HTU21D;54250;45.572;38.086;2023-04-29T11:29:02;13.84;81.44
67364;HTU21D;54250;45.572;38.086;2023-04-29T11:31:30;13.88;81.51
67364;HTU21D;54250;45.572;38.086;2023-04-29T11:33:57;13.98;81.52
67364;HTU21D;54250;45.572;38.086;2023-04-29T11:36:23;14.06;81.47
67364;HTU21D;54250;45.572;38.086;2023-04-29T11:38:50;14.12;81.45
67364;HTU21D;54250;45.572;38.086;2023-04-29T11:41:16;14.18;81.48
67364;HTU21D;54250;45.572;38.086;2023-04-29T11:43:45;14.23;81.50
67364;HTU21D;54250;45.572;38.086;2023-04-29T11:46:12;14.22;81.61
67364;HTU21D;54250;45.572;38.086;2023-04-29T11:48:46;14.24;81.75
67364;HTU21D;54250;45.572;38.086;2023-04-29T11:51:14;14.20;81.91
67364;HTU21D;54250;45.572;38.086;2023-04-29T11:53:41;14.17;82.13
67364;HTU21D;54250;45.572;38.086;2023-04-29T11:56:10;14.19;82.25
67364;HTU21D;54250;45.572;38.086;2023-04-29T11:58:37;14.28;82.23
67364;HTU21D;54250;45.572;38.086;2023-04-29T12:01:04;14.48;81.97
67364;HTU21D;54250;45.572;38.086;2023-04-29T12:03:31;14.59;81.68
67364;HTU21D;54250;45.572;38.086;2023-04-29T12:05:58;14.63;81.75
67364;HTU21D;54250;45.572;38.086;2023-04-29T12:08:27;14.73;81.72
67364;HTU21D;54250;45.572;38.086;2023-04-29T12:10:56;14.89;81.49
67364;HTU21D;54250;45.572;38.086;2023-04-29T12:13:25;15.06;81.25
67364;HTU21D;54250;45.572;38.086;2023-04-29T12:15:51;15.18;81.07
67364;HTU21D;54250;45.572;38.086;2023-04-29T12:18:18;15.30;80.89
67364;HTU21D;54250;45.572;38.086;2023-04-29T12:20:45;15.41;80.74
67364;HTU21D;54250;45.572;38.086;2023-04-29T12:23:14;15.36;80.95
67364;HTU21D;54250;45.572;38.086;2023-04-29T12:25:40;15.10;81.39
67364;HTU21D;54250;45.572;38.086;2023-04-29T12:28:16;14.85;81.94
67364;HTU21D;54250;45.572;38.086;2023-04-29T12:30:46;14.66;82.39
67364;HTU21D;54250;45.572;38.086;2023-04-29T12:33:30;14.51;82.63
67364;HTU21D;54250;45.572;38.086;2023-04-29T12:35:57;14.42;82.75
67364;HTU21D;54250;45.572;38.086;2023-04-29T12:40:54;14.21;83.03
67364;HTU21D;54250;45.572;38.086;2023-04-29T12:43:28;14.05;83.12
67364;HTU21D;54250;45.572;38.086;2023-04-29T12:46:00;13.90;83.30
67364;HTU21D;54250;45.572;38.086;2023-04-29T12:48:30;13.82;83.48
67364;HTU21D;54250;45.572;38.086;2023-04-29T12:50:57;13.79;83.47
67364;HTU21D;54250;45.572;38.086;2023-04-29T12:53:31;13.75;83.46
67364;HTU21D;54250;45.572;38.086;2023-04-29T12:55:57;13.68;83.48
67364;HTU21D;54250;45.572;38.086;2023-04-29T12:58:23;13.65;83.53
67364;HTU21D;54250;45.572;38.086;2023-04-29T13:00:49;13.64;83.56
67364;HTU21D;54250;45.572;38.086;2023-04-29T13:03:15;13.61;83.60
67364;HTU21D;54250;45.572;38.086;2023-04-29T13:05:41;13.59;83.65
67364;HTU21D;54250;45.572;38.086;2023-04-29T13:08:07;13.53;83.67
67364;HTU21D;54250;45.572;38.086;2023-04-29T13:10:34;13.49;83.80
67364;HTU21D;54250;45.572;38.086;2023-04-29T13:13:00;13.46;83.91
67364;HTU21D;54250;45.572;38.086;2023-04-29T13:15:27;13.43;83.93
67364;HTU21D;54250;45.572;38.086;2023-04-29T13:17:53;13.40;83.94
67364;HTU21D;54250;45.572;38.086;2023-04-29T13:20:20;13.38;84.03
67364;HTU21D;54250;45.572;38.086;2023-04-29T13:22:46;13.40;84.05
67364;HTU21D;54250;45.572;38.086;2023-04-29T13:25:13;13.44;84.07
67364;HTU21D;54250;45.572;38.086;2023-04-29T13:27:40;13.43;84.00
67364;HTU21D;54250;45.572;38.086;2023-04-29T13:30:07;13.43;84.10
67364;HTU21D;54250;45.572;38.086;2023-04-29T13:32:33;13.45;84.07
67364;HTU21D;54250;45.572;38.086;2023-04-29T13:34:59;13.48;84.02
67364;HTU21D;54250;45.572;38.086;2023-04-29T13:37:26;13.51;84.03
67364;HTU21D;54250;45.572;38.086;2023-04-29T13:39:52;13.54;84.05
67364;HTU21D;54250;45.572;38.086;2023-04-29T13:42:18;13.52;84.10
67364;HTU21D;54250;45.572;38.086;2023-04-29T13:44:44;13.50;84.19
67364;HTU21D;54250;45.572;38.086;2023-04-29T13:47:11;13.49;84.29
67364;HTU21D;54250;45.572;38.086;2023-04-29T13:49:40;13.53;84.29
67364;HTU21D;54250;45.572;38.086;2023-04-29T13:52:12;13.60;84.28
67364;HTU21D;54250;45.572;38.086;2023-04-29T13:54:38;13.64;84.32
67364;HTU21D;54250;45.572;38.086;2023-04-29T13:57:04;13.68;84.37
67364;HTU21D;54250;45.572;38.086;2023-04-29T13:59:31;13.75;84.35
67364;HTU21D;54250;45.572;38.086;2023-04-29T14:01:57;13.79;84.38
67364;HTU21D;54250;45.572;38.086;2023-04-29T14:04:25;13.80;84.45
67364;HTU21D;54250;45.572;38.086;2023-04-29T14:06:51;13.82;84.49
67364;HTU21D;54250;45.572;38.086;2023-04-29T14:09:18;13.83;84.57
67364;HTU21D;54250;45.572;38.086;2023-04-29T14:11:48;13.86;84.61
67364;HTU21D;54250;45.572;38.086;2023-04-29T14:14:15;13.86;84.68
67364;HTU21D;54250;45.572;38.086;2023-04-29T14:16:42;13.85;84.81
67364;HTU21D;54250;45.572;38.086;2023-04-29T14:19:08;13.82;84.93
67364;HTU21D;54250;45.572;38.086;2023-04-29T14:21:34;13.77;85.09
67364;HTU21D;54250;45.572;38.086;2023-04-29T14:24:01;13.73;85.26
67364;HTU21D;54250;45.572;38.086;2023-04-29T14:26:28;13.68;85.38
67364;HTU21D;54250;45.572;38.086;2023-04-29T14:28:58;13.65;85.38
67364;HTU21D;54250;45.572;38.086;2023-04-29T14:31:25;13.64;85.42
67364;HTU21D;54250;45.572;38.086;2023-04-29T14:33:56;13.63;85.44
67364;HTU21D;54250;45.572;38.086;2023-04-29T14:36:22;13.61;85.51
67364;HTU21D;54250;45.572;38.086;2023-04-29T14:38:49;13.60;85.58
67364;HTU21D;54250;45.572;38.086;2023-04-29T14:41:14;13.59;85.64
67364;HTU21D;54250;45.572;38.086;2023-04-29T14:43:41;13.58;85.67
67364;HTU21D;54250;45.572;38.086;2023-04-29T14:46:07;13.58;85.74
67364;HTU21D;54250;45.572;38.086;2023-04-29T14:48:34;13.55;85.81
67364;HTU21D;54250;45.572;38.086;2023-04-29T14:51:00;13.54;85.87
67364;HTU21D;54250;45.572;38.086;2023-04-29T14:53:26;13.54;85.85
67364;HTU21D;54250;45.572;38.086;2023-04-29T14:55:52;13.54;85.84
67364;HTU21D;54250;45.572;38.086;2023-04-29T14:58:18;13.53;85.87
67364;HTU21D;54250;45.572;38.086;2023-04-29T15:00:44;13.53;85.90
67364;HTU21D;54250;45.572;38.086;2023-04-29T15:03:10;13.53;85.92
67364;HTU21D;54250;45.572;38.086;2023-04-29T15:05:37;13.53;85.99
67364;HTU21D;54250;45.572;38.086;2023-04-29T15:08:03;13.54;86.03
67364;HTU21D;54250;45.572;38.086;2023-04-29T15:10:29;13.54;86.04
67364;HTU21D;54250;45.572;38.086;2023-04-29T15:12:55;13.60;86.01
67364;HTU21D;54250;45.572;38.086;2023-04-29T15:15:22;13.62;86.01
67364;HTU21D;54250;45.572;38.086;2023-04-29T15:17:49;13.65;86.03
67364;HTU21D;54250;45.572;38.086;2023-04-29T15:20:16;13.66;86.00
67364;HTU21D;54250;45.572;38.086;2023-04-29T15:22:42;13.68;86.06
67364;HTU21D;54250;45.572;38.086;2023-04-29T15:25:08;13.69;86.09
67364;HTU21D;54250;45.572;38.086;2023-04-29T15:27:35;13.69;86.14
67364;HTU21D;54250;45.572;38.086;2023-04-29T15:30:03;13.71;86.13
67364;HTU21D;54250;45.572;38.086;2023-04-29T15:32:29;13.69;86.22
67364;HTU21D;54250;45.572;38.086;2023-04-29T15:34:58;13.67;86.30
67364;HTU21D;54250;45.572;38.086;2023-04-29T15:37:25;13.67;86.33